• Join FlightAware (Why Join?)
  • Login
  • US Flag 
12:10PM EDT


 

Airport Tracker/Info


-or-


 

Live Flight TrackerFlight Track Log ✈ SKW6492 ✈ 10-Oct-2013 ✈ KDEN - KCOD

Flight Track Log - Related Links

Times and Time Zones

All times are in EDT time to prevent confusion due to time zone crossing. See the SKW6492 flight status page for this flight to view local times or setup timezone preferences in your user account.

Time Position Orientation Groundspeed Altitude Reporting Facility
EDT Latitude Longitude Course Direction KTS MPH feet Rate Location/Type
09:51PM 39.9167 -104.7000 346° North 190 219 7,200  Level Denver TRACON
09:52PM 39.9833 -104.6833 11° North 253 291 8,900 1,740 Climbing Denver TRACON
09:53PM 40.0500 -104.6667 11° North 304 350 10,600 1,560 Climbing Denver TRACON
09:54PM 40.2454 -105.0030 348° North  Level Estimated
09:54PM 40.1500 -104.6833 353° North 339 390 12,100  Level Denver TRACON
09:55PM 40.3411 -105.0860 346° North  Level Estimated
09:56PM 40.4369 -105.1693 323° Northwest  Level Estimated
09:56PM 40.2839 -104.7183 349° North 342 394 15,400  Level Denver Center
09:57PM 40.5325 -105.2528 346° North  Level Estimated
09:57PM 40.3806 -104.7450 348° North 357 411 16,400  Level Denver Center
09:58PM 40.4886 -104.7733 349° North 393 452 17,700 1,560 Climbing Denver Center
09:59PM 40.6033 -104.8047 348° North 392 451 19,700 1,440 Climbing Denver Center
10:00PM 40.7136 -104.8325 349° North 403 464 20,700 960 Climbing Denver Center
10:01PM 40.8292 -104.8667 347° North 402 463 21,700 1,020 Climbing Denver Center
10:02PM 40.9400 -104.9253 338° Northwest 424 488 22,900 1,260 Climbing Denver Center
10:03PM 41.0583 -104.9819 340° North 422 486 24,300 1,380 Climbing Denver Center
10:04PM 41.1636 -105.0336 340° North 420 483 25,800 1,080 Climbing Denver Center
10:05PM 41.2661 -105.0861 339° North 415 478 26,600 660 Climbing Denver Center
10:06PM 41.3944 -105.1494 340° North 434 499 27,200 480 Climbing Denver Center
10:07PM 41.5061 -105.2067 339° North 448 516 27,700 720 Climbing Denver Center
10:08PM 41.6250 -105.3061 328° Northwest 456 525 28,700 960 Climbing Denver Center
10:09PM 41.7144 -105.4125 318° Northwest 451 519 29,700 960 Climbing Denver Center
10:10PM 41.8167 -105.5347 318° Northwest 443 510 30,800 720 Climbing Denver Center
10:11PM 41.9061 -105.6453 317° Northwest 452 520 31,200 480 Climbing Denver Center
10:12PM 41.9969 -105.7553 318° Northwest 457 526 31,800 660 Climbing Denver Center
10:13PM 42.1028 -105.8850 318° Northwest 460 529 32,600 720 Climbing Denver Center
10:14PM 42.1922 -105.9967 317° Northwest 457 526 33,300 660 Climbing Denver Center
10:15PM 42.2981 -106.1261 318° Northwest 458 527 34,000 300 Climbing Denver Center
10:16PM 42.3894 -106.2403 317° Northwest 463 533 34,000  Level Denver Center
10:17PM 42.5000 -106.3758 318° Northwest 478 550 34,000  Level Denver Center
10:18PM 42.5942 -106.4936 317° Northwest 479 551 34,000  Level Denver Center
10:19PM 42.7011 -106.6292 317° Northwest 475 547 34,000  Level Denver Center
10:20PM 42.7931 -106.7442 317° Northwest 470 541 34,000  Level Denver Center
10:21PM 42.8836 -106.8592 317° Northwest 466 536 34,000  Level Denver Center
10:22PM 42.9575 -106.9542 317° Northwest 461 531 34,000  Level Salt Lake Center
10:23PM 43.0492 -107.0711 317° Northwest 454 522 34,000  Level Salt Lake Center
10:24PM 43.1411 -107.1903 317° Northwest 454 522 34,000  Level Salt Lake Center
10:25PM 43.2544 -107.3356 317° Northwest 463 533 34,000  Level Salt Lake Center
10:26PM 43.3492 -107.4589 317° Northwest 469 540 34,000  Level Salt Lake Center
10:27PM 43.4436 -107.5808 317° Northwest 466 536 34,000  Level Salt Lake Center
10:28PM 43.5372 -107.7047 316° Northwest 466 536 34,000  Level Salt Lake Center
10:29PM 43.6300 -107.8278 316° Northwest 463 533 34,000 -600 Level Salt Lake Center
10:30PM 43.7222 -107.9500 316° Northwest 461 531 32,800 -2,340 Descending Salt Lake Center
10:31PM 43.8125 -108.0692 316° Northwest 451 519 29,300 -3,420 Descending Salt Lake Center
10:33PM 43.9028 -108.1886 316° Northwest 449 517 25,800 -3,840 Descending Salt Lake Center
10:34PM 44.0092 -108.3311 316° Northwest 443 510 21,500 -3,900 Descending Salt Lake Center
10:35PM 44.0922 -108.4458 315° West 429 494 17,800 -3,420 Descending Salt Lake Center
10:36PM 44.1739 -108.5556 316° Northwest 420 483 14,500 -2,880 Descending Salt Lake Center
10:37PM 44.2500 -108.6572 316° Northwest 405 466 12,000 -1,380 Descending Salt Lake Center
10:38PM 44.3186 -108.7486 316° Northwest 378 435 11,700 -1,260 Descending Salt Lake Center
10:39PM 44.3775 -108.8278 316° Northwest 336 387 9,500 -1,320 Descending Salt Lake Center
10:40PM 44.4292 -108.8989 316° Northwest 301 346 9,000 -300 Descending Salt Lake Center
10:41PM 44.4831 -108.9108 351° North 258 297 9,000  Level Salt Lake Center
10:42PM 44.5144 -108.8347 60° Northeast 237 273 9,000  Level Salt Lake Center
10:43PM 44.5453 -108.7433 65° Northeast 225 259 9,000  Level Salt Lake Center
10:44PM 44.5789 -108.6867 50° Northeast 214 246 9,000 -540 Level Salt Lake Center
10:45PM 44.6261 -108.7242 331° Northwest 206 237 8,000 -720 Descending Salt Lake Center
10:46PM 44.6522 -108.7781 304° West 190 219 7,600 -300 Descending Salt Lake Center
10:47PM 44.6247 -108.8397 238° Southwest 189 217 7,500 -120 Descending Salt Lake Center
10:48PM 44.5958 -108.8908 232° Southwest 179 206 7,400 -540 Descending Salt Lake Center
10:49PM 44.5675 -108.9428 233° Southwest 172 198 6,500 -960 Descending Salt Lake Center
10:50PM 44.5397 -108.9917 231° Southwest 167 192 5,500 -1,020 Descending Salt Lake Center